Barrow, AK

8:54 AM AKST on February 27, 2015 (GMT -0900)
CRN BARROW OBSERVATORY BARROW 4 ENE AK US | Change Station
CLOSE
Current Station
Personal Weather Station
Location: Barrow, AK
Elevation: 15 ft
Nearby Weather Stations

Elev 15 ft 71.32 °N, 156.61 °W | Updated 54 minutes ago

Blowing Snow
Blowing Snow
9 °F
Feels Like -11 °F
N
23
Wind Variable Wind from North
Gusts 29.0 mph

Today
High -- | Low -- °F
--% Chance of Precip.
Yesterday
High -- | Low -- °F
Precip. -- in
9:09 AM 6:09 PM
Waxing Gibbous, 70% visible
Pressure 29.96 in
Visibility 2.5 miles
Clouds Scattered Clouds 900 ft
Windchill -11 °F
Dew Point 5 °F
Humidity 85%
Rainfall -999.00 in
Snow Depth Not available.
UV 0 out of 12
Pollen Not available.
Air Quality Not available.
Flu Activity Not available.
METAR PABR 271653Z 26024G30KT 2 1/2SM BLSN SCT009 M13/M14 A2995 RMK AO2 PK WND 25030/1652 SLP143 T11281144

More Conditions Fewer Conditions

Pressure 29.96 in
Visibility 2.5 miles
Clouds Scattered Clouds 900 ft
Windchill -11 °F
Dew Point 5 °F
Humidity 85%
Rainfall -999.00 in
Snow Depth Not available.
UV 0 out of 12
Pollen Not available.
Air Quality Not available.
Flu Activity Not available.
METAR PABR 271653Z 26024G30KT 2 1/2SM BLSN SCT009 M13/M14 A2995 RMK AO2 PK WND 25030/1652 SLP143 T11281144

More Conditions Fewer Conditions

10-Day Weather Forecast

Almanac

Astronomy

Feb. 27, 2015 Rise Set
Actual Time
Civil Twilight
Nautical Twilight
Astronomical Twilight
Moon
Length of Visible Light
Length of Day
Tomorrow will be .
, % of the Moon is Illuminated

Today's Extremes

State Highs State Lows

Community

WunderPhotos

Upload Photos

1,800,758 photos uploaded!

WunderBlogs® & News

Nearby

Air Quality

  Air Quality AQ Index Pollutant
Not available.

Snow Depth

Station Depth Elevation

Earthquake Activity

City Distance Mag. Time & Date
Minimum magnitude displayed is 2.5.

Coastal Water Temperatures

Place Temperature

Nearby Weather Stations